Anchor, Texas
Current Conditions -  °F | °C
As of 10:53 PM on Monday 26 Jan 2015 (Local Time) from KLBX Reporting Station
Clear Clear  
Wind Chill: 51°   Ceiling: Unl
Heat Index: 51°   Visibility: 10mi
Dew Point: 43°   Wind: 5mph
Humidity: 74%   Direction: 220°SW
Pressure: 30.18"   Gusts: NA
Location:  29.1898°N, 95.4754°W
Report Text: KLBX 270453Z AUTO 22004KT 10SM CLR 11/06 A3018 RMK AO2 SLP221 T01060061
Loading
Personal Weather Stations






























Interactive Weather Map New forecast layout! Learn more

10-Day Weather Forecast

Advertisements
Track Severe Weather on mobile